Terminal Aerodrome Forecast
Issued by NWS Sterling, VA

Current Version | Previous Version | Graphics & Text | Print | Product List | Glossary On
Versions: 1 2 3 4 5 6 7 8 9 10 11 12 13 14 15 16 17 18 19 20 21 22 23 24
000
FTUS41 KLWX 260520
TAFIAD
TAF
KIAD 260520Z 2606/2712 VRB03KT P6SM OVC130
     FM260900 04007KT 3SM -SN OVC025
     FM261100 01010KT 2SM -SN OVC010
     FM261600 35010KT P6SM OVC020
     FM262200 05004KT P6SM OVC025=

USA.gov is the U.S. government's official web portal to all federal, state and local government web resources and services.